Time;durP1;ratioP1;P1;durP2;ratioP2;P2;SDS_P1;SDS_P2;PMS_P1;PMS_P2;Temp;Humidity;BMP_temperature;BMP_pressure;BME280_temperature;BME280_humidity;BME280_pressure;Samples;Min_cycle;Max_cycle;Signal;HPM_P1;HPM_P2
2023/10/12 00:00:27;;;;;;;32.57;5.87;;;17.90;58.60;;;;;;5009414;28;20498;-57
2023/10/12 00:02:57;;;;;;;15.20;5.13;;;17.90;59.00;;;;;;5008479;28;20504;-57
2023/10/12 00:05:27;;;;;;;11.97;5.30;;;17.90;60.70;;;;;;5014532;28;21050;-57
2023/10/12 00:07:56;;;;;;;11.13;4.53;;;17.90;63.50;;;;;;5009580;28;20455;-56
2023/10/12 00:10:24;;;;;;;17.77;6.00;;;17.90;66.90;;;;;;5012465;28;21005;-58
2023/10/12 00:12:54;;;;;;;20.93;5.60;;;17.90;69.90;;;;;;5015426;28;20460;-57
2023/10/12 00:15:28;;;;;;;16.10;5.17;;;18.00;73.50;;;;;;5011071;28;20945;-57
2023/10/12 00:17:57;;;;;;;16.73;5.43;;;18.10;75.40;;;;;;5006895;28;20474;-57
2023/10/12 00:20:25;;;;;;;12.60;5.07;;;18.10;79.20;;;;;;5012366;28;20455;-58
2023/10/12 00:22:52;;;;;;;14.83;5.80;;;18.20;83.60;;;;;;5007953;28;20479;-57
2023/10/12 00:25:20;;;;;;;15.13;5.03;;;18.10;84.40;;;;;;5009411;28;20857;-58
2023/10/12 00:27:48;;;;;;;13.20;5.23;;;18.20;88.40;;;;;;5014480;28;20467;-58
2023/10/12 00:30:16;;;;;;;10.57;4.87;;;18.20;88.30;;;;;;5007826;28;21000;-58
2023/10/12 00:32:43;;;;;;;15.27;5.00;;;18.30;93.30;;;;;;5013184;28;20905;-59
2023/10/12 00:35:13;;;;;;;18.70;7.33;;;18.30;94.50;;;;;;5013253;28;20516;-57
2023/10/12 00:37:41;;;;;;;13.50;4.57;;;18.30;95.80;;;;;;5013012;28;20459;-58
2023/10/12 00:40:25;;;;;;;6.73;4.33;;;18.40;98.60;;;;;;5011290;28;20479;-58
2023/10/12 00:42:53;;;;;;;18.47;4.77;;;18.40;99.50;;;;;;5008817;28;20479;-58
2023/10/12 00:45:28;;;;;;;14.60;5.40;;;18.60;99.90;;;;;;5007974;28;20459;-57
2023/10/12 00:47:56;;;;;;;19.70;5.50;;;18.60;99.90;;;;;;5009709;28;20460;-60
2023/10/12 00:50:27;;;;;;;16.90;5.13;;;18.70;99.90;;;;;;5007115;28;20526;-58
2023/10/12 00:52:56;;;;;;;20.77;5.67;;;18.70;99.90;;;;;;5018883;28;20543;-57
2023/10/12 00:55:34;;;;;;;15.73;5.27;;;18.70;99.90;;;;;;5013766;28;20509;-58
2023/10/12 00:58:04;;;;;;;22.23;5.50;;;18.70;99.90;;;;;;5015183;28;20463;-57
2023/10/12 01:00:35;;;;;;;17.93;6.10;;;18.70;99.90;;;;;;5016126;28;20455;-58
2023/10/12 01:03:27;;;;;;;12.20;5.53;;;18.70;99.90;;;;;;5020824;28;20463;-57
2023/10/12 01:06:12;;;;;;;21.37;5.53;;;18.70;99.90;;;;;;5007509;28;20817;-56
2023/10/12 01:08:42;;;;;;;24.43;5.23;;;18.70;99.90;;;;;;5008325;28;20485;-57
2023/10/12 01:11:09;;;;;;;15.67;6.30;;;18.70;99.40;;;;;;5006101;28;20954;-57
2023/10/12 01:13:43;;;;;;;14.73;5.27;;;18.70;98.30;;;;;;5008854;28;20924;-58
2023/10/12 01:16:20;;;;;;;16.10;5.83;;;18.60;95.40;;;;;;5008298;28;20471;-58
2023/10/12 01:18:48;;;;;;;33.13;6.83;;;18.60;91.80;;;;;;5012040;28;20487;-57
2023/10/12 01:21:15;;;;;;;14.47;5.30;;;18.50;88.60;;;;;;5014183;28;20470;-57
2023/10/12 01:23:50;;;;;;;17.60;5.50;;;18.60;84.30;;;;;;5012166;28;20459;-56
2023/10/12 01:26:17;;;;;;;15.00;6.37;;;18.50;80.80;;;;;;5007662;28;20871;-59
2023/10/12 01:28:45;;;;;;;17.53;6.40;;;18.50;75.90;;;;;;5012340;28;20487;-59
2023/10/12 01:31:18;;;;;;;12.47;5.83;;;18.40;69.90;;;;;;5007738;28;20551;-58
2023/10/12 01:33:50;;;;;;;19.83;6.13;;;18.30;67.10;;;;;;5006954;28;20483;-58
2023/10/12 01:36:17;;;;;;;23.73;6.60;;;18.30;65.50;;;;;;5012546;28;20985;-58
2023/10/12 01:38:47;;;;;;;18.30;6.40;;;18.20;64.00;;;;;;5004276;28;20494;-57
2023/10/12 01:41:24;;;;;;;27.93;6.13;;;18.20;63.10;;;;;;5007065;28;20539;-57
2023/10/12 01:43:50;;;;;;;14.67;5.27;;;18.20;63.40;;;;;;5010757;28;20460;-58
2023/10/12 01:46:21;;;;;;;16.67;5.90;;;18.20;59.80;;;;;;5013259;28;20455;-57
2023/10/12 01:48:49;;;;;;;23.40;7.83;;;18.20;60.80;;;;;;5010869;28;20487;-59
2023/10/12 01:51:24;;;;;;;16.40;6.20;;;18.20;59.10;;;;;;5005909;28;20555;-56
2023/10/12 01:53:56;;;;;;;24.60;6.90;;;18.10;57.50;;;;;;5011167;28;20574;-58
2023/10/12 01:56:29;;;;;;;15.63;6.33;;;18.10;55.60;;;;;;5013057;28;20464;-58
2023/10/12 01:58:55;;;;;;;20.80;6.53;;;18.20;57.10;;;;;;5005782;28;20501;-58
2023/10/12 02:01:24;;;;;;;11.70;5.33;;;18.20;54.60;;;;;;5013181;28;20444;-60
2023/10/12 02:03:54;;;;;;;18.63;6.57;;;18.10;53.40;;;;;;5010990;28;20463;-56
2023/10/12 02:06:23;;;;;;;17.77;6.70;;;18.10;52.30;;;;;;5014978;28;20527;-57
2023/10/12 02:08:52;;;;;;;20.73;5.60;;;18.10;55.90;;;;;;5010815;28;20483;-57
2023/10/12 02:11:36;;;;;;;18.00;6.53;;;18.10;56.60;;;;;;5009661;28;20961;-57
2023/10/12 02:14:03;;;;;;;23.97;6.93;;;18.10;56.00;;;;;;5008853;28;20487;-57
2023/10/12 02:16:31;;;;;;;16.90;6.23;;;18.20;54.90;;;;;;5013448;28;20623;-58
2023/10/12 02:18:58;;;;;;;19.97;6.73;;;18.10;56.50;;;;;;5013339;28;20897;-57
2023/10/12 02:21:26;;;;;;;15.47;6.17;;;18.10;54.60;;;;;;5010847;28;20471;-58
2023/10/12 02:23:57;;;;;;;12.63;5.30;;;18.10;52.00;;;;;;5008921;28;20510;-58
2023/10/12 02:26:31;;;;;;;13.30;5.87;;;18.10;51.10;;;;;;5010015;28;20475;-57
2023/10/12 02:29:11;;;;;;;18.53;6.20;;;18.10;50.50;;;;;;5001733;28;20619;-57
2023/10/12 02:31:39;;;;;;;15.40;6.00;;;18.10;46.90;;;;;;5009464;28;20468;-57
2023/10/12 02:34:06;;;;;;;19.40;6.73;;;18.00;40.60;;;;;;5013880;28;20498;-57
2023/10/12 02:36:33;;;;;;;14.83;7.10;;;18.00;34.90;;;;;;5011637;28;21031;-56
2023/10/12 02:39:10;;;;;;;18.63;6.93;;;17.90;22.50;;;;;;5003150;28;20479;-57
2023/10/12 02:41:38;;;;;;;14.97;6.90;;;17.80;99.90;;;;;;5012181;28;20463;-57
2023/10/12 02:44:14;;;;;;;28.17;7.00;;;17.70;99.90;;;;;;5008231;28;20494;-58
2023/10/12 02:46:59;;;;;;;17.10;6.83;;;17.60;99.90;;;;;;5009492;28;20455;-58
2023/10/12 02:49:26;;;;;;;15.47;6.60;;;17.60;99.90;;;;;;5011994;28;20489;-58
2023/10/12 02:51:53;;;;;;;12.23;5.27;;;17.40;99.90;;;;;;5009630;28;20906;-57
2023/10/12 02:54:26;;;;;;;15.03;6.43;;;17.30;99.90;;;;;;5008407;28;20514;-58
2023/10/12 02:56:56;;;;;;;10.53;4.87;;;17.20;99.90;;;;;;5006316;28;20463;-57
2023/10/12 02:59:25;;;;;;;15.33;5.07;;;17.00;99.90;;;;;;5006367;28;20542;-57
2023/10/12 03:02:11;;;;;;;6.73;4.80;;;16.80;99.90;;;;;;5004353;28;20459;-57
2023/10/12 03:04:40;;;;;;;10.37;3.90;;;16.70;99.90;;;;;;5007109;28;20451;-57
2023/10/12 03:07:11;;;;;;;7.60;3.37;;;16.50;99.90;;;;;;5007519;28;20463;-58
2023/10/12 03:09:43;;;;;;;5.63;3.27;;;16.40;99.90;;;;;;5008438;28;20519;-57
2023/10/12 03:12:11;;;;;;;8.33;3.50;;;16.30;99.90;;;;;;5008195;28;20463;-60
2023/10/12 03:14:40;;;;;;;9.20;3.80;;;16.20;94.80;;;;;;5010273;28;20483;-59
2023/10/12 03:17:09;;;;;;;5.43;3.07;;;16.00;77.90;;;;;;5005993;28;21089;-57
2023/10/12 03:19:39;;;;;;;7.53;2.77;;;16.00;73.00;;;;;;5012768;28;20563;-58
2023/10/12 03:22:19;;;;;;;2.90;2.30;;;15.90;67.90;;;;;;5005254;28;20526;-59
2023/10/12 03:24:51;;;;;;;3.33;2.07;;;15.70;67.70;;;;;;5011145;28;20444;-57
2023/10/12 03:27:22;;;;;;;5.03;1.40;;;15.60;73.20;;;;;;5004374;28;21348;-57
2023/10/12 03:29:56;;;;;;;2.07;1.30;;;15.60;72.70;;;;;;5008141;28;20490;-57
2023/10/12 03:32:24;;;;;;;2.87;1.00;;;15.50;69.20;;;;;;5009885;28;20491;-59
2023/10/12 03:34:53;;;;;;;4.93;1.17;;;15.40;66.30;;;;;;5006736;28;20483;-57
2023/10/12 03:37:40;;;;;;;4.30;1.20;;;15.40;58.70;;;;;;5014203;28;20471;-57
2023/10/12 03:40:49;;;;;;;1.83;1.23;;;15.30;56.60;;;;;;5013813;28;20855;-58
2023/10/12 03:43:10;;;;;;;2.73;1.27;;;15.20;45.60;;;;;;5011372;28;20462;-58
2023/10/12 03:46:00;;;;;;;3.97;1.43;;;15.10;37.40;;;;;;5011058;28;20463;-58
2023/10/12 03:48:37;;;;;;;1.93;1.10;;;15.10;33.40;;;;;;5013202;28;20583;-57
2023/10/12 03:51:23;;;;;;;4.00;1.37;;;15.00;31.40;;;;;;5007219;28;20439;-58
2023/10/12 03:53:56;;;;;;;3.10;1.97;;;15.00;28.80;;;;;;5015134;28;20538;-58
2023/10/12 03:56:24;;;;;;;2.40;1.20;;;15.00;25.10;;;;;;5015322;28;20446;-59
2023/10/12 03:58:58;;;;;;;3.00;1.53;;;14.90;23.90;;;;;;5013633;28;20854;-57
2023/10/12 04:01:30;;;;;;;2.70;1.43;;;14.80;22.10;;;;;;5009881;28;20914;-59
2023/10/12 04:04:08;;;;;;;1.83;1.13;;;14.80;25.10;;;;;;5015534;28;20444;-58
2023/10/12 04:07:04;;;;;;;2.33;1.20;;;14.80;25.20;;;;;;5010587;28;20502;-57
2023/10/12 04:09:31;;;;;;;5.33;1.30;;;14.80;22.50;;;;;;5011605;28;20479;-58
2023/10/12 04:12:11;;;;;;;5.43;1.43;;;14.70;21.40;;;;;;5012403;28;20463;-57
2023/10/12 04:14:47;;;;;;;2.93;1.50;;;14.70;85.10;;;;;;5004987;28;20549;-58
2023/10/12 04:20:12;;;;;;;3.27;1.80;;;14.70;99.90;;;;;;5007110;28;20486;-57
2023/10/12 04:23:04;;;;;;;1.70;1.60;;;14.70;99.90;;;;;;5009591;28;20546;-58
2023/10/12 04:25:46;;;;;;;1.70;1.47;;;14.70;99.90;;;;;;5008827;28;20452;-57
2023/10/12 04:28:23;;;;;;;2.00;1.27;;;14.60;99.90;;;;;;5013294;28;20807;-58
2023/10/12 04:31:21;;;;;;;5.77;1.70;;;14.60;99.90;;;;;;5005288;28;20517;-58
2023/10/12 04:33:55;;;;;;;3.77;1.60;;;14.50;99.90;;;;;;5008705;28;20499;-57
2023/10/12 04:36:33;;;;;;;2.17;1.40;;;14.50;99.90;;;;;;5009124;28;20956;-57
2023/10/12 04:39:10;;;;;;;2.33;1.20;;;14.50;99.90;;;;;;5008574;28;20518;-57
2023/10/12 04:41:45;;;;;;;1.87;1.53;;;14.50;99.90;;;;;;5012551;28;20490;-59
2023/10/12 04:44:35;;;;;;;9.43;1.57;;;14.40;99.90;;;;;;5010642;28;20849;-58
2023/10/12 04:47:05;;;;;;;2.33;1.37;;;14.40;99.90;;;;;;5009860;28;20460;-58
2023/10/12 04:52:24;;;;;;;2.10;1.07;;;14.30;99.90;;;;;;5010346;28;20543;-57
2023/10/12 04:55:06;;;;;;;3.10;1.20;;;14.30;99.90;;;;;;5004547;28;20498;-60
2023/10/12 04:57:37;;;;;;;4.20;1.37;;;14.30;99.90;;;;;;5006283;28;20468;-58
2023/10/12 05:00:16;;;;;;;1.37;1.10;;;14.30;99.90;;;;;;5004765;28;20566;-57
2023/10/12 05:02:58;;;;;;;4.87;1.37;;;14.30;99.90;;;;;;5007860;28;20513;-58
2023/10/12 05:08:09;;;;;;;2.40;1.03;;;14.20;99.90;;;;;;5006546;28;20968;-57
2023/10/12 05:13:22;;;;;;;15.77;1.63;;;14.20;99.90;;;;;;5017701;28;20479;-57
2023/10/12 05:16:04;;;;;;;4.33;1.00;;;14.20;99.90;;;;;;5028032;28;20498;-58
2023/10/12 05:18:33;;;;;;;2.07;1.10;;;14.20;99.90;;;;;;5023663;28;20472;-58
2023/10/12 05:21:00;;;;;;;1.30;0.90;;;14.20;99.90;;;;;;5032459;28;20448;-60
2023/10/12 05:23:29;;;;;;;2.30;1.30;;;14.10;99.90;;;;;;5033072;28;20531;-57
2023/10/12 05:26:08;;;;;;;4.43;1.33;;;14.10;99.90;;;;;;5022482;28;21179;-57
2023/10/12 05:28:43;;;;;;;2.27;1.40;;;14.10;99.90;;;;;;5012876;28;20475;-60
2023/10/12 05:31:13;;;;;;;4.77;1.20;;;14.10;99.90;;;;;;5009191;28;20443;-58
2023/10/12 05:34:00;;;;;;;1.27;0.80;;;14.10;99.90;;;;;;5009930;28;21091;-58
2023/10/12 05:36:28;;;;;;;4.30;1.30;;;14.00;99.90;;;;;;5004087;28;20499;-58
2023/10/12 05:39:11;;;;;;;1.87;1.10;;;14.10;99.90;;;;;;5004025;28;20969;-59
2023/10/12 05:41:39;;;;;;;1.10;1.00;;;14.10;99.90;;;;;;5006511;28;20448;-58
2023/10/12 05:44:08;;;;;;;1.50;1.20;;;14.10;99.90;;;;;;5007234;28;20872;-58
2023/10/12 05:46:35;;;;;;;4.30;1.10;;;14.10;99.90;;;;;;5011788;28;20451;-58
2023/10/12 05:49:11;;;;;;;2.07;1.30;;;14.10;99.90;;;;;;5012906;28;20483;-59
2023/10/12 05:51:38;;;;;;;4.23;1.23;;;14.10;99.90;;;;;;5012915;28;20462;-58
2023/10/12 05:54:07;;;;;;;2.23;1.27;;;14.10;99.90;;;;;;5028817;28;20436;-58
2023/10/12 05:56:34;;;;;;;1.73;1.30;;;14.00;99.90;;;;;;5022397;28;20480;-58
2023/10/12 05:59:00;;;;;;;3.43;1.10;;;14.10;99.90;;;;;;5032213;28;20510;-58
2023/10/12 06:01:32;;;;;;;1.80;1.20;;;14.00;99.90;;;;;;5030935;28;20973;-57
2023/10/12 06:03:59;;;;;;;2.50;1.17;;;14.10;99.90;;;;;;5027588;28;20470;-57
2023/10/12 06:06:31;;;;;;;1.30;1.20;;;14.10;99.90;;;;;;5024723;28;20482;-61
2023/10/12 06:08:59;;;;;;;2.33;1.17;;;14.10;99.90;;;;;;5009053;28;20963;-57
2023/10/12 06:11:26;;;;;;;2.20;1.77;;;14.10;99.90;;;;;;5011333;28;20474;-58
2023/10/12 06:13:53;;;;;;;3.53;1.20;;;14.10;99.90;;;;;;5004735;28;20467;-56
2023/10/12 06:16:20;;;;;;;2.67;1.30;;;14.10;99.90;;;;;;5013180;28;20542;-57
2023/10/12 06:18:49;;;;;;;2.00;1.27;;;14.10;99.90;;;;;;5010972;28;20483;-59
2023/10/12 06:21:18;;;;;;;5.33;1.57;;;14.20;99.90;;;;;;5011313;28;20450;-62
2023/10/12 06:23:48;;;;;;;4.70;1.53;;;14.20;99.90;;;;;;5012698;28;20479;-60
2023/10/12 06:26:28;;;;;;;7.80;1.50;;;14.20;99.90;;;;;;5013031;28;20439;-62
2023/10/12 06:28:56;;;;;;;3.83;1.60;;;14.20;99.90;;;;;;5011378;28;21019;-60
2023/10/12 06:31:24;;;;;;;2.83;1.40;;;14.20;99.90;;;;;;5012465;28;20633;-60
2023/10/12 06:33:52;;;;;;;4.00;1.70;;;14.20;99.90;;;;;;5011035;28;20525;-61
2023/10/12 06:36:22;;;;;;;1.10;1.00;;;14.30;99.90;;;;;;5012558;28;20483;-62
2023/10/12 06:40:07;;;;;;;2.40;1.43;;;14.30;99.90;;;;;;5011396;28;20490;-61
2023/10/12 06:42:09;;;;;;;5.07;1.67;;;14.30;99.90;;;;;;5010300;28;20987;-60
2023/10/12 06:44:36;;;;;;;1.30;1.20;;;14.30;99.90;;;;;;5009204;28;20844;-59
2023/10/12 06:47:33;;;;;;;1.40;1.13;;;14.30;99.90;;;;;;5011189;28;20463;-61
2023/10/12 06:49:51;;;;;;;3.10;1.00;;;14.30;99.90;;;;;;5004018;28;20472;-63
2023/10/12 06:52:19;;;;;;;1.43;1.00;;;14.30;99.90;;;;;;5010660;28;20470;-61
2023/10/12 06:54:59;;;;;;;2.97;1.30;;;14.30;99.90;;;;;;5012242;28;20483;-62
2023/10/12 06:57:36;;;;;;;1.20;1.10;;;14.30;99.90;;;;;;5012501;28;20463;-62
2023/10/12 07:02:56;;;;;;;1.97;1.10;;;14.30;99.90;;;;;;5087746;28;20623;-60
2023/10/12 07:05:28;;;;;;;1.40;1.30;;;14.30;99.90;;;;;;5074008;28;20490;-60
2023/10/12 07:07:55;;;;;;;1.10;1.00;;;14.40;99.90;;;;;;5064075;28;20464;-61
2023/10/12 07:10:28;;;;;;;1.67;1.10;;;14.40;99.90;;;;;;5045775;28;20442;-61
2023/10/12 07:12:59;;;;;;;1.57;1.10;;;14.40;99.90;;;;;;5042375;28;20974;-61
2023/10/12 07:15:31;;;;;;;1.40;1.30;;;14.40;99.90;;;;;;5045905;28;20462;-62
2023/10/12 07:18:06;;;;;;;2.20;1.50;;;14.40;99.90;;;;;;5037161;28;21046;-61
2023/10/12 07:20:42;;;;;;;2.17;1.50;;;14.40;99.90;;;;;;5034929;28;20468;-60
2023/10/12 07:23:15;;;;;;;5.00;2.67;;;14.00;99.90;;;;;;5040495;28;20860;-60
2023/10/12 07:25:43;;;;;;;5.93;1.67;;;13.70;99.90;;;;;;5049382;28;20469;-60
2023/10/12 07:28:16;;;;;;;10.10;1.67;;;13.50;99.90;;;;;;5052656;28;20450;-60
2023/10/12 07:30:43;;;;;;;8.10;2.00;;;13.30;99.90;;;;;;5044800;28;20445;-60
2023/10/12 07:33:11;;;;;;;6.03;1.50;;;13.20;99.90;;;;;;5040883;28;20864;-61
2023/10/12 07:35:39;;;;;;;7.57;2.13;;;13.10;99.90;;;;;;5047240;28;20489;-62
2023/10/12 07:38:12;;;;;;;7.27;2.00;;;13.10;99.90;;;;;;5047105;28;20917;-61
2023/10/12 07:40:48;;;;;;;18.47;1.97;;;13.10;99.90;;;;;;5048365;28;20529;-59
2023/10/12 07:43:18;;;;;;;5.90;2.90;;;13.00;99.90;;;;;;5047942;28;20851;-59
2023/10/12 07:45:48;;;;;;;6.50;1.80;;;13.10;99.90;;;;;;5046933;28;20464;-60
2023/10/12 07:48:29;;;;;;;12.57;2.33;;;13.00;99.90;;;;;;5042762;28;20804;-60
2023/10/12 07:50:57;;;;;;;6.70;1.80;;;12.80;99.90;;;;;;5047754;28;20931;-60
2023/10/12 07:53:23;;;;;;;7.83;3.30;;;12.80;99.90;;;;;;5047970;28;20454;-60
2023/10/12 07:55:56;;;;;;;12.50;3.03;;;12.80;99.90;;;;;;5047962;28;20446;-60
2023/10/12 07:58:23;;;;;;;10.63;2.20;;;12.70;99.90;;;;;;5047505;28;20489;-60
2023/10/12 08:01:02;;;;;;;9.13;1.80;;;12.70;99.90;;;;;;5046495;28;20962;-60
2023/10/12 08:03:36;;;;;;;5.63;2.50;;;12.70;99.90;;;;;;5045378;28;20462;-60
2023/10/12 08:06:15;;;;;;;13.93;2.23;;;12.70;99.90;;;;;;5047845;28;20446;-60
2023/10/12 08:08:41;;;;;;;9.23;2.00;;;12.70;99.90;;;;;;5051052;28;20585;-59
2023/10/12 08:11:22;;;;;;;7.20;2.20;;;12.70;99.90;;;;;;5069238;28;20447;-59
2023/10/12 08:13:48;;;;;;;9.40;2.33;;;12.70;99.90;;;;;;5056746;28;20203;-61
2023/10/12 08:16:25;;;;;;;7.20;2.00;;;12.70;99.90;;;;;;5055636;28;20991;-60
2023/10/12 08:21:41;;;;;;;11.47;2.70;;;12.70;99.90;;;;;;5006823;28;20486;-56
2023/10/12 08:24:14;;;;;;;15.53;2.63;;;12.80;99.90;;;;;;5005393;28;20492;-56
2023/10/12 08:26:57;;;;;;;9.80;2.50;;;12.80;99.90;;;;;;5004092;28;20465;-58
2023/10/12 08:32:12;;;;;;;7.70;2.50;;;12.90;99.90;;;;;;5008964;28;20969;-57
2023/10/12 08:34:42;;;;;;;11.10;2.90;;;12.90;99.90;;;;;;5005708;28;20464;-57
2023/10/12 08:37:19;;;;;;;7.07;2.20;;;12.90;99.90;;;;;;5005207;28;20445;-56
2023/10/12 08:39:49;;;;;;;14.07;4.93;;;12.80;99.90;;;;;;5003922;28;20491;-57
2023/10/12 08:45:19;;;;;;;10.80;4.50;;;12.80;99.90;;;;;;4991945;28;20463;-56
2023/10/12 08:48:01;;;;;;;14.47;3.50;;;12.90;99.90;;;;;;5009469;28;20472;-57
2023/10/12 08:53:24;;;;;;;14.90;2.90;;;13.00;99.90;;;;;;5004264;28;20500;-57
2023/10/12 08:55:53;;;;;;;7.37;2.50;;;13.00;99.90;;;;;;5009449;28;20488;-54
2023/10/12 08:58:32;;;;;;;11.60;2.77;;;13.00;99.90;;;;;;5015469;28;20464;-55
2023/10/12 09:01:09;;;;;;;8.40;3.23;;;13.00;99.90;;;;;;5008952;28;20506;-54
2023/10/12 09:03:44;;;;;;;19.60;2.87;;;13.10;99.90;;;;;;5006804;28;20517;-56
2023/10/12 09:06:29;;;;;;;14.13;3.87;;;13.10;99.90;;;;;;5003076;28;20837;-55
2023/10/12 09:08:56;;;;;;;11.07;3.00;;;13.10;99.90;;;;;;5011956;28;20487;-55
2023/10/12 09:11:29;;;;;;;6.67;2.87;;;13.10;99.90;;;;;;5004104;28;20534;-55
2023/10/12 09:13:58;;;;;;;10.73;2.90;;;13.10;99.90;;;;;;5004841;28;20828;-55
2023/10/12 09:16:26;;;;;;;30.73;3.40;;;13.20;99.90;;;;;;5016040;28;20988;-54
2023/10/12 09:18:57;;;;;;;12.13;3.07;;;13.20;99.90;;;;;;5009994;28;20565;-54
2023/10/12 09:21:28;;;;;;;15.47;3.23;;;13.20;99.90;;;;;;5006633;28;20857;-54
2023/10/12 09:24:05;;;;;;;18.53;3.20;;;13.30;99.90;;;;;;4995779;28;20448;-55
2023/10/12 09:26:33;;;;;;;15.20;3.53;;;13.30;99.90;;;;;;5003644;28;20520;-55
2023/10/12 09:29:09;;;;;;;8.93;3.47;;;13.40;99.90;;;;;;5008570;28;20481;-54
2023/10/12 09:34:43;;;;;;;9.80;2.37;;;13.40;99.90;;;;;;5003594;28;20426;-55
2023/10/12 09:37:16;;;;;;;19.50;2.67;;;13.40;99.90;;;;;;5003280;28;20470;-54
2023/10/12 09:39:45;;;;;;;15.97;3.00;;;13.50;99.90;;;;;;5004905;28;20543;-54
2023/10/12 09:42:22;;;;;;;15.53;3.23;;;13.60;99.90;;;;;;5010194;28;20518;-55
2023/10/12 09:44:53;;;;;;;18.20;2.73;;;13.70;99.90;;;;;;5011760;28;20550;-55
2023/10/12 09:47:25;;;;;;;11.47;2.70;;;13.80;99.90;;;;;;5008638;28;20448;-55
2023/10/12 09:49:56;;;;;;;8.57;2.80;;;13.80;99.90;;;;;;5011340;28;21023;-55
2023/10/12 09:52:41;;;;;;;9.73;2.63;;;13.90;99.90;;;;;;5012736;28;20809;-55
2023/10/12 09:55:13;;;;;;;10.23;2.60;;;13.90;99.90;;;;;;5009450;28;20479;-55
2023/10/12 09:57:49;;;;;;;12.33;3.30;;;13.90;99.90;;;;;;5008721;28;20444;-55
2023/10/12 10:00:28;;;;;;;19.23;2.33;;;13.90;99.90;;;;;;5000073;28;20877;-54
2023/10/12 10:02:59;;;;;;;10.07;3.00;;;14.00;99.90;;;;;;5005099;28;20541;-54
2023/10/12 10:05:51;;;;;;;8.50;2.27;;;14.00;72.30;;;;;;5006026;28;20464;-55
2023/10/12 10:08:18;;;;;;;15.10;3.00;;;14.00;25.70;;;;;;5004917;28;20435;-55
2023/10/12 10:10:45;;;;;;;23.17;3.23;;;14.20;93.60;;;;;;5009007;28;20468;-55
2023/10/12 10:13:39;;;;;;;16.43;2.83;;;14.20;30.60;;;;;;5003708;28;20809;-55
2023/10/12 10:16:09;;;;;;;13.80;3.13;;;14.20;44.10;;;;;;5009709;28;20840;-55
2023/10/12 10:18:46;;;;;;;7.90;1.97;;;14.30;44.20;;;;;;5005061;28;20461;-55
2023/10/12 10:21:15;;;;;;;12.50;2.30;;;14.30;44.10;;;;;;5004084;28;20475;-56
2023/10/12 10:23:49;;;;;;;15.23;2.53;;;14.20;63.70;;;;;;5008342;28;20572;-55
2023/10/12 10:26:20;;;;;;;11.47;2.67;;;14.20;74.40;;;;;;5005024;28;20440;-55
2023/10/12 10:28:54;;;;;;;11.10;2.87;;;14.30;69.90;;;;;;5010745;28;21001;-55
2023/10/12 10:31:26;;;;;;;13.80;2.93;;;14.30;61.00;;;;;;5006847;28;20464;-55
2023/10/12 10:33:57;;;;;;;8.13;1.93;;;14.30;69.90;;;;;;5003958;28;20505;-54
2023/10/12 10:36:27;;;;;;;11.40;2.80;;;14.30;70.90;;;;;;5004818;28;20451;-55
2023/10/12 10:38:55;;;;;;;10.97;2.07;;;14.30;67.40;;;;;;5010070;28;20566;-54
2023/10/12 10:41:38;;;;;;;14.70;2.87;;;14.40;64.30;;;;;;5005017;28;20954;-55
2023/10/12 10:44:08;;;;;;;10.47;2.23;;;14.40;64.80;;;;;;5004006;28;20461;-55
2023/10/12 10:46:40;;;;;;;16.83;3.70;;;14.30;85.20;;;;;;5011774;28;20459;-54
2023/10/12 10:49:06;;;;;;;13.40;3.33;;;14.50;73.70;;;;;;5007189;28;20519;-55
2023/10/12 10:51:33;;;;;;;12.70;2.67;;;14.50;89.90;;;;;;5001593;28;20467;-54
2023/10/12 10:54:03;;;;;;;13.37;3.10;;;14.60;99.90;;;;;;5011590;28;20942;-55
2023/10/12 10:56:35;;;;;;;20.50;2.27;;;14.60;95.30;;;;;;5006031;28;21001;-55
2023/10/12 10:59:01;;;;;;;13.70;3.27;;;14.60;99.90;;;;;;5000812;28;20527;-55
2023/10/12 11:01:28;;;;;;;17.73;3.60;;;14.70;99.90;;;;;;4993901;28;20547;-55
2023/10/12 11:03:57;;;;;;;8.83;2.70;;;14.80;99.90;;;;;;5008174;28;20491;-55
2023/10/12 11:06:24;;;;;;;18.67;2.83;;;14.80;99.90;;;;;;5008768;28;20464;-55
2023/10/12 11:09:01;;;;;;;17.77;3.60;;;14.90;99.90;;;;;;4995786;28;20468;-55
2023/10/12 11:11:37;;;;;;;14.40;3.83;;;15.00;99.90;;;;;;5008337;28;20852;-55
2023/10/12 11:14:04;;;;;;;14.93;3.40;;;15.00;99.90;;;;;;5001023;28;20560;-55
2023/10/12 11:16:31;;;;;;;12.27;3.10;;;15.10;99.90;;;;;;4998102;28;20452;-54
2023/10/12 11:18:59;;;;;;;9.53;2.87;;;15.20;99.90;;;;;;5004646;28;20479;-55
2023/10/12 11:21:26;;;;;;;20.57;3.47;;;15.20;99.90;;;;;;5010670;28;20502;-55
2023/10/12 11:24:04;;;;;;;20.60;3.80;;;15.20;99.90;;;;;;5001051;28;20484;-55
2023/10/12 11:26:39;;;;;;;18.30;2.83;;;15.20;99.90;;;;;;5011233;28;20443;-55
2023/10/12 11:29:10;;;;;;;15.60;2.73;;;15.40;99.90;;;;;;5004369;28;20566;-56
2023/10/12 11:31:37;;;;;;;21.03;2.70;;;15.50;99.90;;;;;;4996727;28;20871;-56
2023/10/12 11:34:07;;;;;;;14.77;3.10;;;15.50;99.90;;;;;;5001521;28;20437;-55
2023/10/12 11:36:35;;;;;;;10.90;2.50;;;15.60;99.90;;;;;;5004804;28;20468;-55
2023/10/12 11:39:10;;;;;;;18.87;3.43;;;15.60;99.90;;;;;;5000036;28;20472;-56
2023/10/12 11:41:38;;;;;;;20.13;3.57;;;15.60;99.90;;;;;;4998745;28;20498;-55
2023/10/12 11:44:07;;;;;;;17.77;3.00;;;15.60;99.90;;;;;;5001307;28;20566;-56
2023/10/12 11:46:43;;;;;;;14.03;2.80;;;15.50;20.30;;;;;;4998084;28;20838;-54
2023/10/12 11:49:10;;;;;;;8.43;3.03;;;15.50;99.90;;;;;;5013968;28;20558;-54
2023/10/12 11:51:40;;;;;;;32.37;3.37;;;15.40;92.20;;;;;;5008362;28;20492;-55
2023/10/12 11:54:09;;;;;;;15.63;2.40;;;15.40;99.90;;;;;;5005855;28;20466;-55
2023/10/12 11:56:44;;;;;;;14.03;2.63;;;15.30;99.90;;;;;;5004697;28;20445;-55
2023/10/12 11:59:14;;;;;;;18.70;3.07;;;15.20;33.10;;;;;;5002306;28;20479;-55
2023/10/12 12:01:41;;;;;;;20.50;2.97;;;15.30;26.20;;;;;;5009876;28;20467;-55
2023/10/12 12:04:10;;;;;;;19.37;3.53;;;16.00;44.50;;;;;;5006924;28;20838;-54
2023/10/12 12:06:38;;;;;;;17.43;3.33;;;16.20;67.70;;;;;;5006179;28;20550;-55
2023/10/12 12:09:07;;;;;;;11.63;3.00;;;16.10;72.20;;;;;;5006439;28;20482;-55
2023/10/12 12:11:38;;;;;;;9.70;2.30;;;15.90;56.30;;;;;;5014719;28;20440;-55
2023/10/12 12:14:06;;;;;;;15.23;3.10;;;15.70;49.30;;;;;;5004929;28;20448;-55
2023/10/12 12:16:34;;;;;;;12.83;3.30;;;15.70;37.10;;;;;;5006493;28;20966;-55
2023/10/12 12:19:01;;;;;;;10.60;3.90;;;15.80;43.10;;;;;;5008415;28;20574;-55
2023/10/12 12:21:31;;;;;;;16.17;3.93;;;15.70;35.70;;;;;;5001526;28;20880;-55
2023/10/12 12:24:00;;;;;;;27.97;3.30;;;15.70;44.70;;;;;;5007910;28;20488;-55
2023/10/12 12:26:33;;;;;;;16.43;3.30;;;15.70;51.50;;;;;;5004002;28;20448;-54
2023/10/12 12:29:04;;;;;;;13.60;3.23;;;15.60;28.10;;;;;;5007858;28;20572;-55
2023/10/12 12:31:32;;;;;;;12.30;2.77;;;15.80;99.90;;;;;;5008498;28;21070;-54
2023/10/12 12:33:59;;;;;;;20.10;2.70;;;15.70;54.30;;;;;;5001215;28;20540;-55
2023/10/12 12:36:26;;;;;;;11.73;3.30;;;15.80;72.70;;;;;;5007504;28;20612;-55
2023/10/12 12:38:57;;;;;;;10.90;2.70;;;15.80;71.50;;;;;;5011467;28;20859;-55
2023/10/12 12:41:24;;;;;;;18.17;3.53;;;15.80;83.50;;;;;;5012311;28;20555;-55
2023/10/12 12:43:52;;;;;;;15.83;3.33;;;15.80;64.60;;;;;;5002072;28;20487;-55
2023/10/12 12:46:19;;;;;;;11.77;3.10;;;15.90;62.60;;;;;;5013761;28;20452;-55
2023/10/12 12:48:50;;;;;;;17.90;2.63;;;15.90;81.90;;;;;;5004698;28;20526;-55
2023/10/12 12:51:18;;;;;;;9.03;2.70;;;16.30;95.80;;;;;;5004719;28;20444;-55
2023/10/12 12:53:47;;;;;;;9.20;2.70;;;16.40;99.90;;;;;;5013793;28;20467;-56
2023/10/12 12:56:15;;;;;;;18.80;2.70;;;16.50;99.90;;;;;;5008988;28;20452;-55
2023/10/12 12:58:46;;;;;;;13.00;3.13;;;16.40;99.90;;;;;;5008312;28;20463;-55
2023/10/12 13:01:13;;;;;;;30.07;2.87;;;16.40;99.50;;;;;;5001512;28;20470;-55
2023/10/12 13:03:40;;;;;;;14.27;3.03;;;16.40;99.90;;;;;;5000579;28;20488;-55
2023/10/12 13:06:08;;;;;;;16.40;2.90;;;16.30;99.90;;;;;;5013860;28;20475;-55
2023/10/12 13:08:35;;;;;;;9.53;2.83;;;16.30;99.40;;;;;;5009537;28;20499;-54
2023/10/12 13:11:04;;;;;;;12.63;3.23;;;16.20;99.90;;;;;;5001431;28;20487;-55
2023/10/12 13:13:33;;;;;;;12.70;2.87;;;16.30;99.90;;;;;;4999490;28;20457;-55
2023/10/12 13:16:00;;;;;;;8.53;2.40;;;16.40;99.90;;;;;;5001867;28;20468;-56
2023/10/12 13:18:29;;;;;;;14.73;3.53;;;16.40;99.90;;;;;;5012999;28;20529;-56
2023/10/12 13:20:57;;;;;;;11.93;3.10;;;16.40;99.90;;;;;;5011886;28;20456;-57
2023/10/12 13:23:25;;;;;;;17.77;3.60;;;16.20;99.90;;;;;;5013021;28;20934;-56
2023/10/12 13:25:51;;;;;;;11.90;3.60;;;16.10;99.90;;;;;;5011664;28;20464;-56
2023/10/12 13:28:18;;;;;;;22.00;3.90;;;16.10;78.60;;;;;;5010941;28;20460;-56
2023/10/12 13:30:45;;;;;;;15.20;3.30;;;16.00;97.00;;;;;;5005744;28;20472;-56
2023/10/12 13:33:13;;;;;;;12.37;2.50;;;15.90;98.00;;;;;;5007261;28;20440;-57